Richfield, Wisconsin
Current Conditions -  °F | °C
As of 10:10 PM on Monday 22 Dec 2014 (Local Time) from KETB Reporting Station
Light Rain Light Rain  
Wind Chill: -1°   Ceiling: 400
Heat Index:   Visibility: 3mi
Dew Point:   Wind: 13mph
Humidity: 93%   Direction: 120°ESE
Pressure: 29.67"   Gusts: 17mph
Location:  43.26°N, 88.19°W
Report Text: KETB 230410Z AUTO 12011G15KT 3SM -RA OVC004 03/02 A2967 RMK AO2 P0001
Loading
Personal Weather Stations






























Interactive Weather Map New forecast layout! Learn more

10-Day Weather Forecast

Advertisements
Track Severe Weather on mobile